Time;durP1;ratioP1;P1;durP2;ratioP2;P2;SDS_P1;SDS_P2;PMS_P1;PMS_P2;Temp;Humidity;BMP_temperature;BMP_pressure;BME280_temperature;BME280_humidity;BME280_pressure;Samples;Min_cycle;Max_cycle;Signal;HPM_P1;HPM_P2
2022/10/27 00:01:08;;;;;;;5.03;3.10;;;;;;;;;;10198826;28;20042;-70
2022/10/27 00:06:07;;;;;;;8.45;3.88;;;;;;;;;;10185901;28;20082;-71
2022/10/27 00:11:06;;;;;;;3.65;3.03;;;;;;;;;;10198095;28;20515;-69
2022/10/27 00:16:07;;;;;;;6.78;3.97;;;;;;;;;;10176715;28;20085;-69
2022/10/27 00:21:06;;;;;;;6.32;2.90;;;;;;;;;;10169995;28;20089;-69
2022/10/27 00:26:05;;;;;;;4.03;3.38;;;;;;;;;;10190495;28;20084;-69
2022/10/27 00:31:05;;;;;;;4.85;4.13;;;;;;;;;;10195889;28;20082;-68
2022/10/27 00:36:06;;;;;;;4.78;3.78;;;;;;;;;;10197779;28;20049;-69
2022/10/27 00:41:05;;;;;;;6.22;3.58;;;;;;;;;;10210788;28;20050;-69
2022/10/27 00:46:06;;;;;;;5.00;4.47;;;;;;;;;;10195892;28;20078;-69
2022/10/27 00:51:06;;;;;;;7.43;4.05;;;;;;;;;;10185784;28;20068;-70
2022/10/27 00:56:05;;;;;;;5.25;3.22;;;;;;;;;;10196757;28;20555;-70
2022/10/27 01:01:03;;;;;;;5.80;3.85;;;;;;;;;;10197165;28;20049;-70
2022/10/27 01:06:02;;;;;;;6.78;3.90;;;;;;;;;;10196896;28;20081;-69
2022/10/27 01:11:01;;;;;;;8.20;3.72;;;;;;;;;;10195648;28;20523;-70
2022/10/27 01:16:02;;;;;;;3.88;3.47;;;;;;;;;;10176621;28;20441;-69
2022/10/27 01:21:23;;;;;;;4.90;3.30;;;;;;;;;;10167125;28;20504;-69
2022/10/27 01:26:31;;;;;;;3.63;3.20;;;;;;;;;;10167340;28;20078;-69
2022/10/27 01:31:32;;;;;;;4.50;3.67;;;;;;;;;;10191370;28;20081;-69
2022/10/27 01:36:34;;;;;;;5.68;4.50;;;;;;;;;;10194320;28;20088;-70
2022/10/27 01:41:33;;;;;;;5.68;4.22;;;;;;;;;;10169941;28;20114;-69
2022/10/27 01:46:34;;;;;;;4.45;3.45;;;;;;;;;;10166638;28;20074;-69
2022/10/27 01:51:32;;;;;;;5.18;4.10;;;;;;;;;;10165418;28;20074;-70
2022/10/27 01:56:38;;;;;;;5.68;4.00;;;;;;;;;;10164513;28;20804;-69
2022/10/27 02:01:44;;;;;;;5.95;4.60;;;;;;;;;;10163491;28;20050;-68
2022/10/27 02:06:48;;;;;;;6.30;4.00;;;;;;;;;;10165969;28;20540;-69
2022/10/27 02:11:50;;;;;;;5.85;4.18;;;;;;;;;;10163270;28;20046;-69
2022/10/27 02:16:52;;;;;;;5.90;4.18;;;;;;;;;;10166041;28;20086;-68
2022/10/27 02:21:51;;;;;;;6.70;3.53;;;;;;;;;;10165894;28;20073;-69
2022/10/27 02:26:51;;;;;;;7.30;4.25;;;;;;;;;;10165317;28;20477;-69
2022/10/27 02:31:52;;;;;;;7.72;5.30;;;;;;;;;;10192092;28;20038;-69
2022/10/27 02:36:51;;;;;;;10.25;6.85;;;;;;;;;;10180630;28;20074;-69
2022/10/27 02:41:49;;;;;;;6.45;5.10;;;;;;;;;;10175088;28;20076;-69
2022/10/27 02:46:47;;;;;;;6.85;5.90;;;;;;;;;;10173059;28;20085;-70
2022/10/27 02:51:51;;;;;;;7.97;4.63;;;;;;;;;;10172066;28;20492;-69
2022/10/27 02:56:49;;;;;;;10.35;6.38;;;;;;;;;;10172772;28;20081;-69
2022/10/27 03:01:47;;;;;;;7.93;5.28;;;;;;;;;;10176375;28;20030;-70
2022/10/27 03:06:46;;;;;;;7.32;5.35;;;;;;;;;;10193735;28;20499;-69
2022/10/27 03:11:46;;;;;;;7.63;6.10;;;;;;;;;;10200531;28;20042;-69
2022/10/27 03:16:44;;;;;;;7.47;5.88;;;;;;;;;;10199966;28;20076;-70
2022/10/27 03:21:42;;;;;;;8.90;5.53;;;;;;;;;;10199955;28;20037;-70
2022/10/27 03:26:43;;;;;;;5.55;5.05;;;;;;;;;;10199737;28;20069;-70
2022/10/27 03:31:43;;;;;;;6.85;5.32;;;;;;;;;;10199011;28;20069;-69
2022/10/27 03:36:41;;;;;;;6.20;5.22;;;;;;;;;;10199571;28;20510;-69
2022/10/27 03:41:40;;;;;;;6.10;5.43;;;;;;;;;;10198902;28;20495;-69
2022/10/27 03:46:38;;;;;;;6.05;5.05;;;;;;;;;;10199083;28;20050;-69
2022/10/27 03:51:37;;;;;;;10.43;5.25;;;;;;;;;;10196576;28;20104;-69
2022/10/27 03:56:36;;;;;;;6.20;5.35;;;;;;;;;;10177214;28;20070;-69
2022/10/27 04:01:34;;;;;;;5.70;5.20;;;;;;;;;;10189457;28;20076;-69
2022/10/27 04:06:34;;;;;;;10.73;6.05;;;;;;;;;;10186006;28;20077;-70
2022/10/27 04:11:33;;;;;;;5.88;5.05;;;;;;;;;;10185145;28;20118;-70
2022/10/27 04:16:32;;;;;;;6.80;5.20;;;;;;;;;;10197818;28;20041;-70
2022/10/27 04:21:30;;;;;;;10.15;5.70;;;;;;;;;;10195108;28;20086;-69
2022/10/27 04:26:28;;;;;;;11.98;6.25;;;;;;;;;;10198723;28;20076;-69
2022/10/27 04:31:28;;;;;;;10.10;6.18;;;;;;;;;;10196857;28;20092;-69
2022/10/27 04:36:26;;;;;;;8.45;6.82;;;;;;;;;;10206443;28;20077;-69
2022/10/27 04:41:24;;;;;;;9.82;6.18;;;;;;;;;;10206551;28;20073;-69
2022/10/27 04:46:22;;;;;;;11.77;7.63;;;;;;;;;;10197343;28;20050;-69
2022/10/27 04:51:22;;;;;;;15.68;8.68;;;;;;;;;;10196097;28;20073;-69
2022/10/27 04:56:20;;;;;;;11.57;7.63;;;;;;;;;;10172949;28;20082;-66
2022/10/27 05:01:18;;;;;;;14.98;8.02;;;;;;;;;;10181866;28;20069;-69
2022/10/27 05:06:17;;;;;;;14.73;7.88;;;;;;;;;;10174684;28;20128;-69
2022/10/27 05:11:16;;;;;;;15.98;9.27;;;;;;;;;;10188874;28;20069;-69
2022/10/27 05:16:14;;;;;;;8.45;6.85;;;;;;;;;;10196599;28;20077;-70
2022/10/27 05:21:13;;;;;;;9.32;7.68;;;;;;;;;;10195303;28;20093;-69
2022/10/27 05:26:11;;;;;;;13.50;6.75;;;;;;;;;;10193593;28;20046;-70
2022/10/27 05:31:10;;;;;;;16.50;7.85;;;;;;;;;;10195531;28;20069;-70
2022/10/27 05:36:09;;;;;;;11.82;7.82;;;;;;;;;;10194683;28;20065;-70
2022/10/27 05:41:07;;;;;;;11.20;8.30;;;;;;;;;;10192918;28;20066;-70
2022/10/27 05:46:05;;;;;;;8.68;7.15;;;;;;;;;;10193581;28;20077;-71
2022/10/27 05:51:05;;;;;;;12.27;7.57;;;;;;;;;;10193108;28;20081;-70
2022/10/27 05:56:03;;;;;;;9.63;6.18;;;;;;;;;;10174774;28;20162;-69
2022/10/27 06:01:02;;;;;;;8.30;5.60;;;;;;;;;;10162170;28;20062;-69
2022/10/27 06:06:02;;;;;;;7.43;5.75;;;;;;;;;;10162235;28;20086;-69
2022/10/27 06:11:03;;;;;;;9.55;6.93;;;;;;;;;;10160268;28;20104;-69
2022/10/27 06:16:01;;;;;;;9.18;5.95;;;;;;;;;;10163936;28;20081;-67
2022/10/27 06:20:59;;;;;;;11.23;6.32;;;;;;;;;;10165933;28;20072;-70
2022/10/27 06:25:57;;;;;;;11.43;6.43;;;;;;;;;;10166079;28;20525;-69
2022/10/27 06:30:57;;;;;;;9.60;5.80;;;;;;;;;;10164936;28;20085;-69
2022/10/27 06:35:55;;;;;;;8.73;6.65;;;;;;;;;;10166452;28;20065;-70
2022/10/27 06:40:54;;;;;;;15.77;8.10;;;;;;;;;;10165496;28;20065;-69
2022/10/27 06:45:52;;;;;;;15.65;8.55;;;;;;;;;;10182356;28;20050;-69
2022/10/27 06:50:54;;;;;;;22.25;12.20;;;;;;;;;;10192815;28;20088;-69
2022/10/27 06:55:54;;;;;;;23.70;13.82;;;;;;;;;;10173951;28;20038;-69
2022/10/27 07:00:52;;;;;;;34.60;18.70;;;;;;;;;;10165520;28;20081;-69
2022/10/27 07:05:50;;;;;;;27.33;12.07;;;;;;;;;;10164709;28;20081;-70
2022/10/27 07:10:51;;;;;;;18.40;9.93;;;;;;;;;;10165164;28;20073;-69
2022/10/27 07:15:49;;;;;;;17.30;12.07;;;;;;;;;;10164671;28;20073;-68
2022/10/27 07:20:48;;;;;;;22.05;11.00;;;;;;;;;;10181254;28;20046;-68
2022/10/27 07:25:48;;;;;;;22.60;12.63;;;;;;;;;;10197431;28;20426;-69
2022/10/27 07:30:47;;;;;;;27.77;13.23;;;;;;;;;;10199319;28;20078;-69
2022/10/27 07:35:48;;;;;;;21.33;9.05;;;;;;;;;;10181548;28;20057;-70
2022/10/27 07:40:46;;;;;;;11.05;6.93;;;;;;;;;;10198281;28;20061;-69
2022/10/27 07:45:44;;;;;;;11.43;7.45;;;;;;;;;;10199830;28;20419;-70
2022/10/27 07:50:44;;;;;;;9.70;7.05;;;;;;;;;;10198908;28;20106;-69
2022/10/27 07:55:43;;;;;;;14.13;8.00;;;;;;;;;;10197133;28;20050;-69
2022/10/27 08:00:41;;;;;;;34.20;26.48;;;;;;;;;;10198909;28;20042;-70
2022/10/27 08:05:40;;;;;;;22.40;14.82;;;;;;;;;;10181993;28;20047;-68
2022/10/27 08:10:40;;;;;;;17.52;8.18;;;;;;;;;;10169767;28;20109;-70
2022/10/27 08:15:39;;;;;;;11.07;7.68;;;;;;;;;;10169975;28;20397;-69
2022/10/27 08:20:39;;;;;;;14.48;8.88;;;;;;;;;;10170176;28;20078;-69
2022/10/27 08:25:37;;;;;;;23.42;9.88;;;;;;;;;;10169741;28;20105;-69
2022/10/27 08:30:37;;;;;;;15.65;8.65;;;;;;;;;;10168492;28;20093;-69
2022/10/27 08:35:46;;;;;;;12.45;8.55;;;;;;;;;;10168241;28;20473;-69
2022/10/27 08:40:51;;;;;;;23.58;9.43;;;;;;;;;;10147090;28;20051;-69
2022/10/27 08:45:58;;;;;;;13.77;8.52;;;;;;;;;;10167801;28;20078;-69
2022/10/27 08:50:57;;;;;;;18.33;8.10;;;;;;;;;;10163279;28;20176;-69
2022/10/27 08:55:57;;;;;;;22.83;9.95;;;;;;;;;;10185156;28;20053;-68
2022/10/27 09:00:59;;;;;;;15.93;10.18;;;;;;;;;;10194799;28;20078;-69
2022/10/27 09:06:01;;;;;;;15.43;10.45;;;;;;;;;;10195029;28;20088;-70
2022/10/27 09:11:07;;;;;;;16.90;9.35;;;;;;;;;;10176603;28;20527;-68
2022/10/27 09:16:12;;;;;;;22.02;9.30;;;;;;;;;;10176910;28;20518;-69
2022/10/27 09:21:13;;;;;;;12.83;9.90;;;;;;;;;;10195855;28;20436;-70
2022/10/27 09:26:12;;;;;;;15.25;10.55;;;;;;;;;;10174376;28;20077;-69
2022/10/27 09:31:14;;;;;;;20.13;10.07;;;;;;;;;;10165852;28;20093;-69
2022/10/27 09:36:13;;;;;;;28.88;10.85;;;;;;;;;;10188569;28;20042;-69
2022/10/27 09:41:12;;;;;;;24.70;12.95;;;;;;;;;;10195150;28;20048;-69
2022/10/27 09:46:12;;;;;;;17.52;12.20;;;;;;;;;;10193724;28;20054;-69
2022/10/27 09:51:14;;;;;;;20.77;10.18;;;;;;;;;;10171897;28;20081;-68
2022/10/27 09:56:14;;;;;;;18.63;10.43;;;;;;;;;;10166547;28;20082;-69
2022/10/27 10:01:17;;;;;;;;;;;;;;;;;;10166470;28;20558;-69
2022/10/27 10:06:25;;;;;;;17.63;9.52;;;;;;;;;;10187493;28;19944;-68
2022/10/27 10:11:23;;;;;;;19.60;11.45;;;;;;;;;;10193509;28;20508;-69
2022/10/27 10:16:21;;;;;;;16.05;11.02;;;;;;;;;;10193620;28;20066;-69
2022/10/27 10:21:19;;;;;;;20.73;12.40;;;;;;;;;;10192145;28;20543;-70
2022/10/27 10:26:20;;;;;;;14.27;9.55;;;;;;;;;;10193878;28;20049;-70
2022/10/27 10:31:22;;;;;;;18.73;11.02;;;;;;;;;;10171635;28;20473;-71
2022/10/27 10:36:25;;;;;;;21.33;11.05;;;;;;;;;;10164279;28;20469;-69
2022/10/27 10:41:26;;;;;;;16.08;10.50;;;;;;;;;;10188627;28;20049;-69
2022/10/27 10:46:24;;;;;;;19.23;10.20;;;;;;;;;;10194418;28;20049;-69
2022/10/27 10:51:26;;;;;;;19.67;11.13;;;;;;;;;;10169587;28;20082;-69
2022/10/27 10:56:27;;;;;;;13.85;9.98;;;;;;;;;;10164727;28;20081;-69
2022/10/27 11:01:37;;;;;;;20.50;11.70;;;;;;;;;;10192996;28;20071;-69
2022/10/27 11:06:36;;;;;;;13.57;9.32;;;;;;;;;;10200079;28;20080;-69
2022/10/27 11:11:39;;;;;;;17.20;9.10;;;;;;;;;;10199604;28;20077;-69
2022/10/27 11:16:38;;;;;;;20.67;9.65;;;;;;;;;;10199973;28;20060;-69
2022/10/27 11:21:48;;;;;;;14.40;7.28;;;;;;;;;;10159312;28;20101;-70
2022/10/27 11:26:55;;;;;;;19.35;7.82;;;;;;;;;;10195337;28;20522;-69
2022/10/27 11:31:59;;;;;;;12.38;6.20;;;;;;;;;;10198289;28;20073;-72
2022/10/27 11:36:59;;;;;;;14.33;7.43;;;;;;;;;;10197811;28;20511;-69
2022/10/27 11:42:04;;;;;;;13.00;5.82;;;;;;;;;;10199353;28;20076;-70
2022/10/27 11:47:01;;;;;;;;;;;;;;;;;;10180706;28;20057;-70
2022/10/27 11:52:04;;;;;;;7.13;4.75;;;;;;;;;;10197519;28;20389;-69
2022/10/27 11:57:11;;;;;;;11.63;5.10;;;;;;;;;;10198565;28;20062;-69
2022/10/27 12:02:42;;;;;;;5.50;3.38;;;;;;;;;;10198335;28;20077;-69
2022/10/27 12:07:45;;;;;;;6.05;4.72;;;;;;;;;;10198824;28;20045;-69
2022/10/27 12:12:46;;;;;;;11.13;5.30;;;;;;;;;;10196367;28;20077;-69
2022/10/27 12:17:48;;;;;;;6.05;4.70;;;;;;;;;;10198899;28;20073;-69
2022/10/27 12:22:49;;;;;;;5.57;4.13;;;;;;;;;;10198024;28;20077;-69
2022/10/27 12:27:50;;;;;;;7.50;4.47;;;;;;;;;;10197479;28;20069;-69
2022/10/27 12:32:52;;;;;;;3.78;3.15;;;;;;;;;;10197141;28;20457;-69
2022/10/27 12:37:55;;;;;;;11.10;7.28;;;;;;;;;;10194323;28;20065;-70
2022/10/27 12:43:01;;;;;;;5.63;3.78;;;;;;;;;;10166146;28;20086;-69
2022/10/27 12:48:03;;;;;;;7.78;3.45;;;;;;;;;;10162640;28;20076;-70
2022/10/27 12:53:05;;;;;;;3.72;2.95;;;;;;;;;;10165405;28;20081;-70
2022/10/27 12:58:10;;;;;;;6.13;3.40;;;;;;;;;;10196720;28;20050;-70
2022/10/27 13:03:21;;;;;;;7.05;6.22;;;;;;;;;;10197390;28;20038;-69
2022/10/27 13:08:40;;;;;;;14.80;11.25;;;;;;;;;;10167006;28;20076;-69
2022/10/27 13:13:51;;;;;;;4.45;3.78;;;;;;;;;;10189022;28;20527;-70
2022/10/27 13:19:01;;;;;;;4.93;3.65;;;;;;;;;;10182234;28;20046;-69
2022/10/27 13:24:01;;;;;;;5.43;2.67;;;;;;;;;;10189953;28;20077;-69
2022/10/27 13:29:03;;;;;;;8.60;3.40;;;;;;;;;;10166890;28;20158;-69
2022/10/27 13:34:03;;;;;;;4.03;2.70;;;;;;;;;;10169625;28;20077;-69
2022/10/27 13:39:20;;;;;;;5.60;3.55;;;;;;;;;;10195110;28;20491;-70
2022/10/27 13:44:27;;;;;;;11.15;3.75;;;;;;;;;;10187755;28;20062;-70
2022/10/27 13:49:43;;;;;;;3.53;2.67;;;;;;;;;;10164342;28;20082;-69
2022/10/27 13:54:52;;;;;;;3.97;3.03;;;;;;;;;;10165923;28;20500;-69
2022/10/27 13:59:53;;;;;;;6.50;3.55;;;;;;;;;;10164923;28;20523;-69
2022/10/27 14:04:55;;;;;;;9.93;5.35;;;;;;;;;;10164236;28;20458;-69
2022/10/27 14:09:54;;;;;;;8.20;3.65;;;;;;;;;;10164436;28;20046;-69
2022/10/27 14:14:58;;;;;;;11.70;4.45;;;;;;;;;;10165268;28;20069;-69
2022/10/27 14:19:59;;;;;;;9.63;4.00;;;;;;;;;;10165252;28;20472;-70
2022/10/27 14:25:00;;;;;;;6.60;3.65;;;;;;;;;;10165294;28;20305;-69
2022/10/27 14:30:13;;;;;;;7.72;4.60;;;;;;;;;;10165207;28;20074;-69
2022/10/27 14:35:20;;;;;;;9.98;6.05;;;;;;;;;;10169489;28;20085;-70
2022/10/27 14:40:19;;;;;;;9.32;4.47;;;;;;;;;;10187994;28;20213;-69
2022/10/27 14:45:20;;;;;;;8.02;4.47;;;;;;;;;;10202283;28;20081;-69
2022/10/27 14:50:22;;;;;;;21.73;14.80;;;;;;;;;;10200159;28;20431;-69
2022/10/27 14:55:26;;;;;;;23.85;12.35;;;;;;;;;;10173085;28;20144;-69
2022/10/27 15:00:27;;;;;;;13.18;7.22;;;;;;;;;;10176800;28;20058;-69
2022/10/27 15:05:27;;;;;;;17.17;5.75;;;;;;;;;;10177605;28;20058;-70
2022/10/27 15:10:26;;;;;;;8.70;4.85;;;;;;;;;;10172434;28;20472;-69
2022/10/27 15:15:28;;;;;;;12.00;5.43;;;;;;;;;;10184576;28;20515;-69
2022/10/27 15:20:26;;;;;;;18.08;5.25;;;;;;;;;;10170720;28;20082;-70
2022/10/27 15:25:27;;;;;;;18.55;7.80;;;;;;;;;;10170907;28;20081;-69
2022/10/27 15:30:27;;;;;;;13.57;5.68;;;;;;;;;;10171281;28;20043;-69
2022/10/27 15:35:29;;;;;;;12.10;6.07;;;;;;;;;;10170168;28;20073;-69
2022/10/27 15:40:33;;;;;;;11.38;6.30;;;;;;;;;;10170644;28;20050;-69
2022/10/27 15:45:40;;;;;;;17.75;6.43;;;;;;;;;;10170484;28;20479;-70
2022/10/27 15:50:40;;;;;;;8.38;6.25;;;;;;;;;;10169950;28;20090;-69
2022/10/27 15:55:39;;;;;;;7.32;5.35;;;;;;;;;;10170268;28;20077;-69
2022/10/27 16:00:39;;;;;;;6.20;5.10;;;;;;;;;;10169761;28;20516;-70
2022/10/27 16:05:38;;;;;;;7.47;6.15;;;;;;;;;;10171758;28;20073;-69
2022/10/27 16:10:39;;;;;;;12.38;6.30;;;;;;;;;;10171136;28;20062;-69
2022/10/27 16:15:37;;;;;;;15.63;8.07;;;;;;;;;;10170287;28;20120;-70
2022/10/27 16:20:40;;;;;;;10.02;7.30;;;;;;;;;;10168993;28;20531;-70
2022/10/27 16:25:42;;;;;;;8.45;5.68;;;;;;;;;;10180362;28;20460;-70
2022/10/27 16:30:41;;;;;;;15.85;9.98;;;;;;;;;;10190125;28;20081;-70
2022/10/27 16:35:41;;;;;;;14.73;6.38;;;;;;;;;;10195006;28;20073;-70
2022/10/27 16:40:40;;;;;;;9.23;4.50;;;;;;;;;;10192209;28;20077;-69
2022/10/27 16:45:44;;;;;;;4.65;4.15;;;;;;;;;;10169179;28;20466;-70
2022/10/27 16:50:44;;;;;;;4.57;4.18;;;;;;;;;;10185839;28;20073;-69
2022/10/27 16:55:42;;;;;;;7.63;3.97;;;;;;;;;;10189715;28;20072;-70
2022/10/27 17:00:40;;;;;;;6.20;3.90;;;;;;;;;;10184984;28;20069;-69
2022/10/27 17:05:42;;;;;;;8.75;4.30;;;;;;;;;;10190326;28;20065;-69
2022/10/27 17:10:41;;;;;;;8.13;4.15;;;;;;;;;;10188783;28;20116;-69
2022/10/27 17:15:39;;;;;;;5.72;4.10;;;;;;;;;;10187482;28;20069;-68
2022/10/27 17:20:38;;;;;;;13.50;3.88;;;;;;;;;;10192891;28;20165;-68
2022/10/27 17:25:36;;;;;;;6.45;4.05;;;;;;;;;;10193595;28;20078;-70
2022/10/27 17:30:36;;;;;;;22.02;18.40;;;;;;;;;;10187975;28;20092;-69
2022/10/27 17:35:34;;;;;;;7.90;4.97;;;;;;;;;;10185993;28;20062;-69
2022/10/27 17:40:32;;;;;;;7.03;4.40;;;;;;;;;;10185803;28;20427;-69
2022/10/27 17:45:30;;;;;;;5.10;4.10;;;;;;;;;;10191406;28;20062;-70
2022/10/27 17:50:31;;;;;;;5.97;3.38;;;;;;;;;;10192106;28;20081;-69
2022/10/27 17:55:31;;;;;;;9.85;3.88;;;;;;;;;;10177012;28;20074;-67
2022/10/27 18:00:29;;;;;;;10.82;5.65;;;;;;;;;;10165346;28;20080;-70
2022/10/27 18:05:30;;;;;;;11.80;6.38;;;;;;;;;;10174912;28;20547;-70
2022/10/27 18:10:29;;;;;;;9.65;6.28;;;;;;;;;;10153886;28;20081;-70
2022/10/27 18:15:28;;;;;;;9.00;4.13;;;;;;;;;;10185091;28;20072;-70
2022/10/27 18:20:34;;;;;;;7.57;4.50;;;;;;;;;;10188998;28;20069;-68
2022/10/27 18:25:33;;;;;;;6.65;4.35;;;;;;;;;;10192518;28;20385;-71
2022/10/27 18:30:32;;;;;;;6.65;3.53;;;;;;;;;;10182944;28;20074;-69
2022/10/27 18:35:30;;;;;;;9.43;3.50;;;;;;;;;;10184583;28;20065;-69
2022/10/27 18:40:28;;;;;;;5.75;5.05;;;;;;;;;;10182972;28;20069;-69
2022/10/27 18:45:28;;;;;;;12.40;8.52;;;;;;;;;;10184741;28;20487;-70
2022/10/27 18:50:26;;;;;;;24.13;14.57;;;;;;;;;;10183825;28;20085;-70
2022/10/27 18:55:24;;;;;;;8.38;5.30;;;;;;;;;;10183526;28;20080;-70
2022/10/27 19:00:24;;;;;;;7.00;3.42;;;;;;;;;;10185617;28;20065;-69
2022/10/27 19:05:31;;;;;;;3.53;2.65;;;;;;;;;;10184250;28;20076;-69
2022/10/27 19:10:29;;;;;;;5.60;3.45;;;;;;;;;;10180405;28;20097;-68
2022/10/27 19:15:29;;;;;;;4.53;3.30;;;;;;;;;;10183156;28;20073;-69
2022/10/27 19:20:29;;;;;;;4.82;3.33;;;;;;;;;;10187520;28;20120;-68
2022/10/27 19:25:28;;;;;;;4.00;3.00;;;;;;;;;;10193511;28;20076;-69
2022/10/27 19:30:26;;;;;;;4.35;3.40;;;;;;;;;;10192374;28;20077;-67
2022/10/27 19:35:24;;;;;;;7.00;3.80;;;;;;;;;;10191844;28;20515;-69
2022/10/27 19:40:24;;;;;;;7.15;3.15;;;;;;;;;;10187807;28;20065;-69
2022/10/27 19:45:23;;;;;;;5.03;3.30;;;;;;;;;;10185821;28;20093;-69
2022/10/27 19:50:22;;;;;;;5.50;3.38;;;;;;;;;;10190968;28;20085;-68
2022/10/27 19:55:20;;;;;;;5.07;3.25;;;;;;;;;;10187258;28;20088;-68
2022/10/27 20:00:20;;;;;;;4.90;3.05;;;;;;;;;;10196178;28;20046;-69
2022/10/27 20:05:22;;;;;;;4.03;3.22;;;;;;;;;;10189209;28;20084;-69
2022/10/27 20:10:20;;;;;;;8.13;3.67;;;;;;;;;;10188634;28;20066;-68
2022/10/27 20:15:20;;;;;;;5.03;3.42;;;;;;;;;;10187580;28;20062;-68
2022/10/27 20:20:21;;;;;;;6.18;3.10;;;;;;;;;;10179772;28;20477;-69
2022/10/27 20:25:19;;;;;;;3.90;2.47;;;;;;;;;;10169459;28;20077;-69
2022/10/27 20:30:17;;;;;;;4.07;3.65;;;;;;;;;;10167746;28;20515;-69
2022/10/27 20:35:17;;;;;;;5.40;3.45;;;;;;;;;;10167606;28;20077;-67
2022/10/27 20:40:15;;;;;;;7.63;4.00;;;;;;;;;;10172253;28;20073;-70
2022/10/27 20:45:14;;;;;;;7.50;4.10;;;;;;;;;;10167425;28;20492;-68
2022/10/27 20:50:12;;;;;;;4.75;3.10;;;;;;;;;;10167957;28;20084;-69
2022/10/27 20:55:12;;;;;;;4.95;3.40;;;;;;;;;;10173603;28;20088;-69
2022/10/27 21:00:11;;;;;;;5.07;3.50;;;;;;;;;;10168957;28;20051;-68
2022/10/27 21:05:09;;;;;;;4.72;3.20;;;;;;;;;;10168238;28;20074;-69
2022/10/27 21:10:08;;;;;;;6.32;3.45;;;;;;;;;;10163902;28;20086;-69
2022/10/27 21:15:08;;;;;;;5.40;3.33;;;;;;;;;;10171240;28;20113;-68
2022/10/27 21:20:07;;;;;;;4.55;3.83;;;;;;;;;;10167312;28;20076;-69
2022/10/27 21:25:08;;;;;;;5.07;3.17;;;;;;;;;;10164392;28;20090;-69
2022/10/27 21:30:09;;;;;;;8.75;3.65;;;;;;;;;;10165942;28;20054;-69
2022/10/27 21:35:10;;;;;;;6.70;3.63;;;;;;;;;;10166388;28;20100;-70
2022/10/27 21:40:09;;;;;;;8.82;3.33;;;;;;;;;;10167419;28;20042;-69
2022/10/27 21:45:10;;;;;;;8.20;3.90;;;;;;;;;;10165271;28;20460;-68
2022/10/27 21:50:09;;;;;;;5.88;3.72;;;;;;;;;;10165867;28;20089;-70
2022/10/27 21:55:10;;;;;;;3.95;3.55;;;;;;;;;;10165726;28;20082;-68
2022/10/27 22:00:15;;;;;;;10.40;3.85;;;;;;;;;;10176229;28;20096;-68
2022/10/27 22:05:14;;;;;;;4.63;3.55;;;;;;;;;;10175967;28;20408;-69
2022/10/27 22:10:12;;;;;;;7.50;3.47;;;;;;;;;;10167752;28;20066;-68
2022/10/27 22:15:11;;;;;;;4.90;3.05;;;;;;;;;;10167093;28;20091;-68
2022/10/27 22:20:10;;;;;;;5.07;3.17;;;;;;;;;;10164249;28;20078;-69
2022/10/27 22:25:08;;;;;;;5.70;3.78;;;;;;;;;;10179291;28;20077;-69
2022/10/27 22:30:07;;;;;;;7.22;3.75;;;;;;;;;;10193400;28;20395;-69
2022/10/27 22:35:07;;;;;;;6.82;3.67;;;;;;;;;;10193595;28;20081;-68
2022/10/27 22:40:06;;;;;;;4.32;3.63;;;;;;;;;;10194095;28;20046;-69
2022/10/27 22:45:05;;;;;;;7.93;3.80;;;;;;;;;;10190877;28;20074;-68
2022/10/27 22:50:03;;;;;;;7.70;3.53;;;;;;;;;;10165380;28;20073;-69
2022/10/27 22:55:03;;;;;;;5.43;3.33;;;;;;;;;;10168029;28;20508;-68
2022/10/27 23:00:01;;;;;;;4.18;3.20;;;;;;;;;;10172884;28;20104;-69
2022/10/27 23:04:59;;;;;;;6.28;3.55;;;;;;;;;;10173247;28;20046;-68
2022/10/27 23:09:57;;;;;;;4.18;3.10;;;;;;;;;;10172258;28;20074;-69
2022/10/27 23:14:57;;;;;;;5.40;3.03;;;;;;;;;;10173497;28;20070;-69
2022/10/27 23:19:55;;;;;;;7.28;3.65;;;;;;;;;;10172439;28;20058;-68
2022/10/27 23:24:53;;;;;;;7.20;4.65;;;;;;;;;;10171359;28;20066;-68
2022/10/27 23:29:51;;;;;;;8.13;6.18;;;;;;;;;;10171941;28;20072;-69
2022/10/27 23:34:51;;;;;;;7.65;4.60;;;;;;;;;;10172376;28;20113;-68
2022/10/27 23:39:49;;;;;;;6.97;3.85;;;;;;;;;;10171276;28;20062;-69
2022/10/27 23:44:49;;;;;;;5.75;3.35;;;;;;;;;;10171933;28;20110;-68
2022/10/27 23:49:47;;;;;;;7.10;3.80;;;;;;;;;;10171912;28;20070;-67
2022/10/27 23:54:48;;;;;;;7.95;4.57;;;;;;;;;;10174516;28;20061;-69
2022/10/27 23:59:46;;;;;;;5.85;3.92;;;;;;;;;;10178689;28;20069;-69
